Time;durP1;ratioP1;P1;durP2;ratioP2;P2;SDS_P1;SDS_P2;PMS_P1;PMS_P2;Temp;Humidity;BMP_temperature;BMP_pressure;BME280_temperature;BME280_humidity;BME280_pressure;Samples;Min_cycle;Max_cycle;Signal;HPM_P1;HPM_P2
2021/12/20 00:00:04;;;;;;;;;;;;;;;2.18;100.00;98013.63;1749558;81;20244;-87
2021/12/20 00:02:32;;;;;;;;;;;;;;;2.16;100.00;98009.82;1749740;81;21441;-88
2021/12/20 00:04:58;;;;;;;;;;;;;;;2.15;100.00;98007.30;1751801;80;24292;-88
2021/12/20 00:07:24;;;;;;;;;;;;;;;2.13;100.00;98011.70;1755453;81;20336;-88
2021/12/20 00:09:50;;;;;;;;;;;;;;;2.05;100.00;98019.31;1752127;80;24791;-84
2021/12/20 00:12:17;;;;;;;;;;;;;;;2.01;100.00;98025.52;1753868;81;21901;-84
2021/12/20 00:14:43;;;;;;;;;;;;;;;1.97;100.00;98017.49;1757111;80;26045;-87
2021/12/20 00:17:09;;;;;;;;;;;;;;;1.95;100.00;98021.90;1747923;81;24404;-84
2021/12/20 00:19:35;;;;;;;;;;;;;;;1.95;100.00;98025.77;1748850;81;20506;-84
2021/12/20 00:22:01;;;;;;;;;;;;;;;1.95;100.00;98033.51;1752644;81;24727;-88
2021/12/20 00:24:28;;;;;;;;;;;;;;;1.95;100.00;98030.93;1745013;81;21965;-88
2021/12/20 00:26:54;;;;;;;;;;;;;;;1.97;100.00;98030.39;1741442;81;26049;-89
2021/12/20 00:29:21;;;;;;;;;;;;;;;1.95;100.00;98029.64;1741804;81;24556;-83
2021/12/20 00:31:47;;;;;;;;;;;;;;;1.93;100.00;98039.17;1739289;81;20260;-87
2021/12/20 00:34:13;;;;;;;;;;;;;;;1.88;100.00;98046.72;1742579;81;24760;-88
2021/12/20 00:36:44;;;;;;;;;;;;;;;1.85;100.00;98045.12;1742823;80;22071;-87
2021/12/20 00:41:52;;;;;;;;;;;;;;;1.79;100.00;98047.11;1738062;81;24456;-84
2021/12/20 00:44:18;;;;;;;;;;;;;;;1.74;100.00;98055.03;1733579;81;20778;-83
2021/12/20 00:46:44;;;;;;;;;;;;;;;1.64;100.00;98052.41;1737362;81;24815;-88
2021/12/20 00:49:10;;;;;;;;;;;;;;;1.63;100.00;98055.47;1740899;81;21862;-88
2021/12/20 00:51:37;;;;;;;;;;;;;;;1.61;100.00;98064.16;1732286;81;26760;-87
2021/12/20 00:54:03;;;;;;;;;;;;;;;1.60;100.00;98063.76;1726436;81;26472;-86
2021/12/20 00:56:29;;;;;;;;;;;;;;;1.60;100.00;98071.05;1741286;81;20305;-86
2021/12/20 00:58:55;;;;;;;;;;;;;;;1.61;100.00;98071.89;1740185;80;24718;-84
2021/12/20 01:01:21;;;;;;;;;;;;;;;1.62;100.00;98074.86;1740437;81;22017;-86
2021/12/20 01:03:47;;;;;;;;;;;;;;;1.65;100.00;98068.28;1747140;81;26031;-87
2021/12/20 01:06:14;;;;;;;;;;;;;;;1.62;100.00;98072.28;1736135;81;24424;-83
2021/12/20 01:08:41;;;;;;;;;;;;;;;1.60;100.00;98071.50;1738724;81;20288;-86
2021/12/20 01:11:08;;;;;;;;;;;;;;;1.60;100.00;98077.94;1743588;81;25387;-86
2021/12/20 01:13:39;;;;;;;;;;;;;;;1.60;100.00;98072.78;1736327;81;22072;-84
2021/12/20 01:16:05;;;;;;;;;;;;;;;1.56;100.00;98070.79;1733785;81;26719;-86
2021/12/20 01:18:31;;;;;;;;;;;;;;;1.52;100.00;98060.66;1738146;81;24502;-86
2021/12/20 01:20:57;;;;;;;;;;;;;;;1.50;100.00;98071.48;1739734;81;20240;-88
2021/12/20 01:23:23;;;;;;;;;;;;;;;1.48;100.00;98072.81;1726009;81;24561;-84
2021/12/20 01:25:49;;;;;;;;;;;;;;;1.48;100.00;98063.79;1734010;81;21937;-88
2021/12/20 01:28:15;;;;;;;;;;;;;;;1.48;100.00;98069.39;1759427;81;26054;-86
2021/12/20 01:30:42;;;;;;;;;;;;;;;1.46;100.00;98068.63;1760548;81;24437;-87
2021/12/20 01:33:09;;;;;;;;;;;;;;;1.44;100.00;98076.86;1766238;80;20143;-87
2021/12/20 01:35:35;;;;;;;;;;;;;;;1.42;100.00;98078.69;1761663;80;24769;-86
2021/12/20 01:38:02;;;;;;;;;;;;;;;1.39;100.00;98074.47;1743833;81;21935;-87
2021/12/20 01:40:28;;;;;;;;;;;;;;;1.37;100.00;98069.81;1739966;81;25883;-87
2021/12/20 01:42:56;;;;;;;;;;;;;;;1.34;100.00;98067.81;1721657;80;24423;-88
2021/12/20 01:45:24;;;;;;;;;;;;;;;1.34;100.00;98078.13;1702301;82;20250;-88
2021/12/20 01:48:00;;;;;;;;;;;;;;;1.33;100.00;98079.02;1698384;81;24884;-83
2021/12/20 01:50:25;;;;;;;;;;;;;;;1.30;100.00;98074.00;1709241;82;22057;-84
2021/12/20 01:52:47;;;;;;;;;;;;;;;1.28;100.00;98070.63;1747059;80;25999;-84
2021/12/20 01:55:15;;;;;;;;;;;;;;;1.27;100.00;98078.80;1739540;81;24307;-87
2021/12/20 01:57:41;;;;;;;;;;;;;;;1.26;100.00;98084.41;1745387;81;20213;-86
2021/12/20 02:00:10;;;;;;;;;;;;;;;1.28;100.00;98084.80;1756451;80;24905;-84
2021/12/20 02:02:36;;;;;;;;;;;;;;;1.28;100.00;98084.36;1755670;81;22032;-84
2021/12/20 02:05:14;;;;;;;;;;;;;;;1.28;100.00;98090.80;1733224;81;26105;-86
2021/12/20 02:07:49;;;;;;;;;;;;;;;1.29;100.00;98092.48;1755238;80;24613;-87
2021/12/20 02:10:03;;;;;;;;;;;;;;;1.30;100.00;98088.17;1757159;80;20463;-83
2021/12/20 02:12:29;;;;;;;;;;;;;;;1.26;100.00;98077.96;1752639;81;24737;-87
2021/12/20 02:14:55;;;;;;;;;;;;;;;1.21;100.00;98073.44;1753745;81;22030;-85
2021/12/20 02:17:21;;;;;;;;;;;;;;;1.17;100.00;98065.89;1750573;81;25974;-84
2021/12/20 02:19:47;;;;;;;;;;;;;;;1.15;100.00;98074.95;1749786;81;24440;-87
2021/12/20 02:22:14;;;;;;;;;;;;;;;1.13;100.00;98075.48;1731757;81;20226;-87
2021/12/20 02:24:40;;;;;;;;;;;;;;;1.17;100.00;98074.45;1753382;80;25327;-87
2021/12/20 02:27:09;;;;;;;;;;;;;;;1.22;100.00;98075.13;1751217;80;22243;-87
2021/12/20 02:29:59;;;;;;;;;;;;;;;1.26;100.00;98070.67;1747476;80;26089;-84
2021/12/20 02:37:40;;;;;;;;;;;;;;;1.30;100.00;98067.55;1741201;81;25423;-85
2021/12/20 02:40:07;;;;;;;;;;;;;;;1.28;100.00;98061.61;1753607;80;21945;-86
2021/12/20 02:42:37;;;;;;;;;;;;;;;1.30;100.00;98072.70;1750641;81;26788;-85
2021/12/20 02:45:11;;;;;;;;;;;;;;;1.34;100.00;98074.27;1728808;81;24870;-86
2021/12/20 02:47:36;;;;;;;;;;;;;;;1.38;100.00;98078.39;1741567;80;20455;-86
2021/12/20 02:50:02;;;;;;;;;;;;;;;1.39;100.00;98082.20;1732957;81;25621;-87
2021/12/20 02:52:28;;;;;;;;;;;;;;;1.37;100.00;98076.27;1739901;80;21956;-84
2021/12/20 02:54:54;;;;;;;;;;;;;;;1.37;100.00;98076.70;1745674;81;25912;-87
2021/12/20 02:57:22;;;;;;;;;;;;;;;1.37;100.00;98087.02;1723344;81;20813;-87
2021/12/20 02:59:48;;;;;;;;;;;;;;;1.37;100.00;98083.99;1735324;81;20170;-87
2021/12/20 03:02:15;;;;;;;;;;;;;;;1.38;100.00;98078.39;1739074;81;24744;-86
2021/12/20 03:04:42;;;;;;;;;;;;;;;1.39;100.00;98076.20;1736387;81;21941;-85
2021/12/20 03:07:10;;;;;;;;;;;;;;;1.43;100.00;98090.20;1740438;81;25977;-87
2021/12/20 03:09:41;;;;;;;;;;;;;;;1.46;100.00;98084.95;1745459;81;24599;-87
2021/12/20 03:12:09;;;;;;;;;;;;;;;1.51;100.00;98088.63;1733680;81;20216;-86
2021/12/20 03:14:39;;;;;;;;;;;;;;;1.48;100.00;98088.73;1745435;81;24727;-86
2021/12/20 03:17:10;;;;;;;;;;;;;;;1.43;100.00;98077.77;1723159;81;22020;-87
2021/12/20 03:19:36;;;;;;;;;;;;;;;1.45;100.00;98085.84;1742045;81;26051;-87
2021/12/20 03:22:05;;;;;;;;;;;;;;;1.39;100.00;98088.66;1739033;81;24528;-87
2021/12/20 03:24:31;;;;;;;;;;;;;;;1.36;100.00;98092.66;1736991;81;20189;-86
2021/12/20 03:26:57;;;;;;;;;;;;;;;1.33;100.00;98097.91;1736608;81;20301;-83
2021/12/20 03:29:27;;;;;;;;;;;;;;;1.29;100.00;98098.09;1761734;80;20248;-85
2021/12/20 03:31:53;;;;;;;;;;;;;;;1.27;100.00;98096.84;1753285;81;26087;-85
2021/12/20 03:34:19;;;;;;;;;;;;;;;1.21;100.00;98090.63;1749901;81;20308;-83
2021/12/20 03:36:46;;;;;;;;;;;;;;;1.19;100.00;98095.03;1761932;81;20282;-88
2021/12/20 03:39:12;;;;;;;;;;;;;;;1.14;100.00;98095.20;1756378;81;25303;-87
2021/12/20 03:41:38;;;;;;;;;;;;;;;1.14;100.00;98090.50;1758172;81;22504;-87
2021/12/20 03:44:06;;;;;;;;;;;;;;;1.10;100.00;98109.08;1754019;81;26021;-87
2021/12/20 03:46:32;;;;;;;;;;;;;;;1.08;100.00;98109.60;1757776;81;24462;-87
2021/12/20 03:48:59;;;;;;;;;;;;;;;1.03;100.00;98101.20;1756241;80;20154;-83
2021/12/20 03:51:25;;;;;;;;;;;;;;;1.02;100.00;98105.12;1758913;81;24802;-88
2021/12/20 03:53:53;;;;;;;;;;;;;;;1.04;100.00;98111.03;1754384;81;22032;-86
2021/12/20 03:56:19;;;;;;;;;;;;;;;1.05;100.00;98117.87;1761039;81;26049;-86
2021/12/20 03:58:46;;;;;;;;;;;;;;;1.03;100.00;98114.09;1757955;81;24508;-86
2021/12/20 04:01:12;;;;;;;;;;;;;;;1.01;100.00;98117.16;1757566;81;20304;-88
2021/12/20 04:03:39;;;;;;;;;;;;;;;1.04;100.00;98114.45;1759718;81;24805;-86
2021/12/20 04:06:07;;;;;;;;;;;;;;;1.09;100.00;98113.84;1758233;81;21972;-84
2021/12/20 04:08:34;;;;;;;;;;;;;;;1.13;100.00;98112.84;1756070;81;26787;-88
2021/12/20 04:11:06;;;;;;;;;;;;;;;1.14;100.00;98112.40;1755824;81;24427;-88
2021/12/20 04:13:30;;;;;;;;;;;;;;;1.13;100.00;98105.56;1755096;81;20349;-88
2021/12/20 04:16:03;;;;;;;;;;;;;;;1.10;100.00;98111.66;1757567;81;25354;-88
2021/12/20 04:18:30;;;;;;;;;;;;;;;1.10;100.00;98112.95;1757144;81;22052;-85
2021/12/20 04:20:56;;;;;;;;;;;;;;;1.08;100.00;98104.45;1760263;80;26212;-84
2021/12/20 04:23:22;;;;;;;;;;;;;;;1.11;100.00;98117.65;1731746;81;24424;-88
2021/12/20 04:25:48;;;;;;;;;;;;;;;1.09;100.00;98117.70;1757465;80;20227;-84
2021/12/20 04:28:14;;;;;;;;;;;;;;;1.15;100.00;98120.05;1756873;81;24719;-87
2021/12/20 04:30:42;;;;;;;;;;;;;;;1.19;100.00;98121.64;1757598;81;22110;-84
2021/12/20 04:33:08;;;;;;;;;;;;;;;1.23;100.00;98119.33;1759672;81;26689;-84
2021/12/20 04:35:34;;;;;;;;;;;;;;;1.26;100.00;98122.23;1727521;81;24519;-86
2021/12/20 04:38:02;;;;;;;;;;;;;;;1.24;100.00;98118.89;1757138;81;20306;-86
2021/12/20 04:40:31;;;;;;;;;;;;;;;1.19;100.00;98121.64;1759352;81;24761;-87
2021/12/20 04:42:58;;;;;;;;;;;;;;;1.20;100.00;98133.60;1763426;80;21946;-87
2021/12/20 04:45:25;;;;;;;;;;;;;;;1.21;100.00;98126.72;1756690;81;25998;-88
2021/12/20 04:47:52;;;;;;;;;;;;;;;1.22;100.00;98121.95;1762884;81;24429;-87
2021/12/20 04:50:18;;;;;;;;;;;;;;;1.21;100.00;98120.27;1759773;81;20476;-87
2021/12/20 04:52:44;;;;;;;;;;;;;;;1.17;100.00;98119.55;1759730;81;25481;-87
2021/12/20 04:55:12;;;;;;;;;;;;;;;1.15;100.00;98111.48;1762308;81;22076;-88
2021/12/20 04:57:38;;;;;;;;;;;;;;;1.13;100.00;98117.16;1756212;81;26143;-85
2021/12/20 05:00:15;;;;;;;;;;;;;;;1.10;100.00;98121.96;1762155;81;24582;-87
2021/12/20 05:02:41;;;;;;;;;;;;;;;1.04;100.00;98120.05;1760274;81;20151;-83
2021/12/20 05:05:13;;;;;;;;;;;;;;;1.01;100.00;98124.05;1760556;81;24836;-84
2021/12/20 05:07:40;;;;;;;;;;;;;;;0.98;100.00;98126.30;1757157;81;21992;-87
2021/12/20 05:10:11;;;;;;;;;;;;;;;0.97;100.00;98130.21;1759037;80;26072;-87
2021/12/20 05:12:36;;;;;;;;;;;;;;;0.95;100.00;98114.80;1757382;81;24522;-85
2021/12/20 05:15:02;;;;;;;;;;;;;;;0.93;100.00;98125.59;1761047;81;20471;-87
2021/12/20 05:17:28;;;;;;;;;;;;;;;0.94;100.00;98131.15;1759972;80;24785;-83
2021/12/20 05:19:54;;;;;;;;;;;;;;;0.92;100.00;98136.83;1758212;81;21941;-87
2021/12/20 05:22:20;;;;;;;;;;;;;;;0.91;100.00;98130.43;1761308;81;25920;-83
2021/12/20 05:24:46;;;;;;;;;;;;;;;0.89;100.00;98135.63;1761417;81;24423;-85
2021/12/20 05:27:12;;;;;;;;;;;;;;;0.84;100.00;98145.26;1757522;81;20224;-83
2021/12/20 05:29:39;;;;;;;;;;;;;;;0.85;100.00;98153.39;1750951;81;20915;-86
2021/12/20 05:32:07;;;;;;;;;;;;;;;0.83;100.00;98146.99;1751654;81;22090;-88
2021/12/20 05:34:34;;;;;;;;;;;;;;;0.82;100.00;98154.32;1744102;81;26874;-86
2021/12/20 05:37:00;;;;;;;;;;;;;;;0.80;100.00;98155.28;1748095;81;24475;-87
2021/12/20 05:39:28;;;;;;;;;;;;;;;0.75;100.00;98165.75;1747289;81;20206;-85
2021/12/20 05:41:54;;;;;;;;;;;;;;;0.72;100.00;98159.84;1751679;81;20786;-85
2021/12/20 05:44:20;;;;;;;;;;;;;;;0.65;100.00;98157.95;1751372;81;22079;-83
2021/12/20 05:46:46;;;;;;;;;;;;;;;0.63;100.00;98155.03;1741116;80;26076;-86
2021/12/20 05:49:19;;;;;;;;;;;;;;;0.61;100.00;98163.23;1746265;81;24256;-87
2021/12/20 05:51:45;;;;;;;;;;;;;;;0.60;100.00;98160.30;1749801;81;20273;-84
2021/12/20 05:54:11;;;;;;;;;;;;;;;0.59;100.00;98150.44;1751372;81;24809;-85
2021/12/20 05:56:40;;;;;;;;;;;;;;;0.57;100.00;98161.67;1748696;81;21995;-87
2021/12/20 05:59:06;;;;;;;;;;;;;;;0.55;100.00;98154.44;1748318;81;26223;-85
2021/12/20 06:01:32;;;;;;;;;;;;;;;0.54;100.00;98156.64;1745922;81;24419;-88
2021/12/20 06:03:58;;;;;;;;;;;;;;;0.52;100.00;98162.28;1749808;81;20179;-88
2021/12/20 06:06:27;;;;;;;;;;;;;;;0.49;100.00;98163.69;1744557;81;24816;-88
2021/12/20 06:08:52;;;;;;;;;;;;;;;0.48;100.00;98157.69;1751370;81;22105;-88
2021/12/20 06:11:18;;;;;;;;;;;;;;;0.50;100.00;98151.18;1750145;81;25953;-87
2021/12/20 06:13:44;;;;;;;;;;;;;;;0.47;100.00;98165.45;1744460;81;24450;-86
2021/12/20 06:16:11;;;;;;;;;;;;;;;0.45;100.00;98169.80;1747803;81;20200;-87
2021/12/20 06:18:37;;;;;;;;;;;;;;;0.47;100.00;98162.88;1746231;81;25387;-87
2021/12/20 06:21:03;;;;;;;;;;;;;;;0.45;100.00;98163.37;1756590;80;21983;-87
2021/12/20 06:23:29;;;;;;;;;;;;;;;0.45;100.00;98168.08;1746503;80;26063;-87
2021/12/20 06:25:55;;;;;;;;;;;;;;;0.45;100.00;98177.53;1748657;81;24242;-86
2021/12/20 06:28:21;;;;;;;;;;;;;;;0.45;100.00;98177.53;1750136;81;20491;-84
2021/12/20 06:30:48;;;;;;;;;;;;;;;0.48;100.00;98169.27;1751828;81;24984;-83
2021/12/20 06:33:14;;;;;;;;;;;;;;;0.49;100.00;98181.26;1747636;81;22072;-86
2021/12/20 06:35:40;;;;;;;;;;;;;;;0.51;100.00;98182.03;1741214;80;27005;-86
2021/12/20 06:38:08;;;;;;;;;;;;;;;0.53;100.00;98191.00;1747248;81;20264;-86
2021/12/20 06:40:35;;;;;;;;;;;;;;;0.55;100.00;98190.48;1758285;81;20486;-86
2021/12/20 06:43:02;;;;;;;;;;;;;;;0.56;100.00;98198.61;1748057;81;24705;-87
2021/12/20 06:45:29;;;;;;;;;;;;;;;0.54;100.00;98199.97;1759624;80;21830;-86
2021/12/20 06:47:56;;;;;;;;;;;;;;;0.59;100.00;98207.53;1756353;80;26062;-86
2021/12/20 06:50:23;;;;;;;;;;;;;;;0.61;100.00;98207.86;1749695;80;24407;-83
2021/12/20 06:52:49;;;;;;;;;;;;;;;0.64;100.00;98209.50;1732661;82;20163;-83
2021/12/20 06:55:15;;;;;;;;;;;;;;;0.64;100.00;98210.34;1704557;82;24820;-83
2021/12/20 06:57:41;;;;;;;;;;;;;;;0.67;100.00;98211.95;1763221;80;22013;-83
2021/12/20 07:00:07;;;;;;;;;;;;;;;0.65;100.00;98209.90;1746865;81;20699;-86
2021/12/20 07:02:33;;;;;;;;;;;;;;;0.64;100.00;98215.94;1740737;81;24675;-86
2021/12/20 07:04:59;;;;;;;;;;;;;;;0.63;100.00;98217.67;1754331;80;20570;-87
2021/12/20 07:07:25;;;;;;;;;;;;;;;0.64;100.00;98221.93;1751022;80;24791;-82
2021/12/20 07:09:51;;;;;;;;;;;;;;;0.65;100.00;98214.61;1747069;81;22070;-82
2021/12/20 07:12:18;;;;;;;;;;;;;;;0.70;100.00;98226.03;1738413;81;26005;-83
2021/12/20 07:14:44;;;;;;;;;;;;;;;0.71;100.00;98224.67;1757199;81;24556;-84
2021/12/20 07:17:10;;;;;;;;;;;;;;;0.69;100.00;98220.48;1750323;81;20373;-83
2021/12/20 07:19:36;;;;;;;;;;;;;;;0.69;100.00;98216.63;1745118;81;24809;-83
2021/12/20 07:22:04;;;;;;;;;;;;;;;0.71;100.00;98216.13;1746227;81;20174;-84
2021/12/20 07:24:30;;;;;;;;;;;;;;;0.71;100.00;98222.57;1742698;81;25974;-84
2021/12/20 07:26:56;;;;;;;;;;;;;;;0.71;100.00;98227.72;1755508;81;24420;-86
2021/12/20 07:29:22;;;;;;;;;;;;;;;0.73;100.00;98225.47;1748879;80;20165;-88
2021/12/20 07:31:50;;;;;;;;;;;;;;;0.74;100.00;98229.73;1737329;82;25601;-87
2021/12/20 07:34:16;;;;;;;;;;;;;;;0.74;100.00;98230.18;1740066;81;22861;-87
2021/12/20 07:36:42;;;;;;;;;;;;;;;0.75;100.00;98228.01;1751083;80;26627;-87
2021/12/20 07:39:09;;;;;;;;;;;;;;;0.74;100.00;98234.89;1762074;81;20283;-87
2021/12/20 07:41:35;;;;;;;;;;;;;;;0.73;100.00;98232.36;1747579;81;20247;-84
2021/12/20 07:44:01;;;;;;;;;;;;;;;0.73;100.00;98225.92;1744207;81;24711;-84
2021/12/20 07:46:27;;;;;;;;;;;;;;;0.77;100.00;98231.34;1763730;81;21946;-84
2021/12/20 07:48:53;;;;;;;;;;;;;;;0.75;100.00;98237.02;1698289;82;26039;-83
2021/12/20 07:51:22;;;;;;;;;;;;;;;0.78;100.00;98242.05;1690656;82;24395;-84
2021/12/20 07:53:47;;;;;;;;;;;;;;;0.78;100.00;98244.62;1752089;80;20268;-84
2021/12/20 07:56:13;;;;;;;;;;;;;;;0.75;100.00;98243.02;1749278;81;24798;-84
2021/12/20 07:58:40;;;;;;;;;;;;;;;0.74;100.00;98253.36;1750680;81;22048;-87
2021/12/20 08:01:08;;;;;;;;;;;;;;;0.75;100.00;98250.74;1692708;82;25989;-86
2021/12/20 08:03:35;;;;;;;;;;;;;;;0.76;100.00;98263.17;1706366;82;25172;-87
2021/12/20 08:06:01;;;;;;;;;;;;;;;0.77;100.00;98263.55;1713867;82;20543;-87
2021/12/20 08:08:27;;;;;;;;;;;;;;;0.79;100.00;98265.19;1733102;81;24813;-85
2021/12/20 08:10:54;;;;;;;;;;;;;;;0.84;100.00;98272.76;1738857;81;21917;-85
2021/12/20 08:13:20;;;;;;;;;;;;;;;0.83;100.00;98271.06;1750593;81;26952;-86
2021/12/20 08:15:46;;;;;;;;;;;;;;;0.80;100.00;98268.61;1733520;81;24420;-86
2021/12/20 08:18:13;;;;;;;;;;;;;;;0.79;100.00;98270.78;1749708;80;20174;-86
2021/12/20 08:20:39;;;;;;;;;;;;;;;0.77;100.00;98281.57;1735230;81;24741;-85
2021/12/20 08:23:05;;;;;;;;;;;;;;;0.75;100.00;98274.36;1738698;81;22150;-86
2021/12/20 08:25:31;;;;;;;;;;;;;;;0.77;100.00;98277.70;1743324;80;25944;-86
2021/12/20 08:27:57;;;;;;;;;;;;;;;0.76;100.00;98275.58;1748735;81;24418;-85
2021/12/20 08:30:27;;;;;;;;;;;;;;;0.78;100.00;98286.68;1747108;80;20490;-86
2021/12/20 08:32:53;;;;;;;;;;;;;;;0.75;100.00;98282.09;1752788;80;24754;-86
2021/12/20 08:35:20;;;;;;;;;;;;;;;0.75;100.00;98287.23;1749531;80;21940;-86
2021/12/20 08:37:49;;;;;;;;;;;;;;;0.76;100.00;98291.50;1765829;80;26038;-86
2021/12/20 08:40:17;;;;;;;;;;;;;;;0.75;100.00;98296.25;1766171;79;24188;-86
2021/12/20 08:42:44;;;;;;;;;;;;;;;0.74;100.00;98294.13;1761246;80;20499;-84
2021/12/20 08:45:11;;;;;;;;;;;;;;;0.80;100.00;98302.94;1755444;81;24732;-85
2021/12/20 08:47:37;;;;;;;;;;;;;;;0.82;100.00;98296.42;1763301;81;22089;-84
2021/12/20 08:50:11;;;;;;;;;;;;;;;0.81;100.00;98294.33;1758024;80;26250;-86
2021/12/20 08:52:40;;;;;;;;;;;;;;;0.84;100.00;98296.78;1749474;81;25368;-86
2021/12/20 08:55:07;;;;;;;;;;;;;;;0.89;100.00;98304.35;1763269;81;20543;-86
2021/12/20 08:57:33;;;;;;;;;;;;;;;0.89;100.00;98308.22;1764611;80;24730;-86
2021/12/20 09:00:00;;;;;;;;;;;;;;;0.92;100.00;98308.58;1755593;81;22024;-87
2021/12/20 09:02:26;;;;;;;;;;;;;;;0.91;100.00;98303.87;1758232;80;25945;-86
2021/12/20 09:04:52;;;;;;;;;;;;;;;0.89;100.00;98313.38;1759758;81;24385;-85
2021/12/20 09:07:18;;;;;;;;;;;;;;;0.88;100.00;98310.84;1755400;81;20348;-87
2021/12/20 09:09:46;;;;;;;;;;;;;;;0.87;100.00;98318.19;1754950;81;24750;-87
2021/12/20 09:12:14;;;;;;;;;;;;;;;0.88;100.00;98316.83;1696349;82;22314;-87
2021/12/20 09:14:41;;;;;;;;;;;;;;;0.85;100.00;98322.10;1740087;80;26046;-87
2021/12/20 09:17:07;;;;;;;;;;;;;;;0.84;100.00;98319.13;1760954;81;24389;-86
2021/12/20 09:19:37;;;;;;;;;;;;;;;0.81;100.00;98324.39;1763834;81;20210;-85
2021/12/20 09:22:02;;;;;;;;;;;;;;;0.83;100.00;98322.58;1749672;80;24776;-85
2021/12/20 09:24:28;;;;;;;;;;;;;;;0.84;100.00;98318.67;1756378;81;22188;-87
2021/12/20 09:26:54;;;;;;;;;;;;;;;0.82;100.00;98312.72;1742056;81;26022;-88
2021/12/20 09:29:20;;;;;;;;;;;;;;;0.81;100.00;98311.06;1753243;81;24491;-84
2021/12/20 09:31:46;;;;;;;;;;;;;;;0.83;100.00;98317.43;1761317;81;20241;-86
2021/12/20 09:34:16;;;;;;;;;;;;;;;0.83;100.00;98309.70;1751525;80;25467;-86
2021/12/20 09:36:44;;;;;;;;;;;;;;;0.86;100.00;98310.06;1758375;81;21960;-88
2021/12/20 09:39:11;;;;;;;;;;;;;;;0.86;100.00;98319.92;1757578;81;25996;-86
2021/12/20 09:44:09;;;;;;;;;;;;;;;0.83;100.00;98315.70;1751252;81;20387;-88
2021/12/20 09:46:36;;;;;;;;;;;;;;;0.85;100.00;98311.80;1755499;81;25401;-86
2021/12/20 09:49:03;;;;;;;;;;;;;;;0.86;100.00;98317.35;1756239;81;22043;-89
2021/12/20 09:51:29;;;;;;;;;;;;;;;0.89;100.00;98314.66;1758673;81;25986;-90
2021/12/20 09:53:55;;;;;;;;;;;;;;;0.88;100.00;98312.97;1756867;81;25098;-90
2021/12/20 09:56:26;;;;;;;;;;;;;;;0.88;100.00;98314.25;1747258;80;20532;-85
2021/12/20 09:58:59;;;;;;;;;;;;;;;0.89;100.00;98311.23;1756663;80;24765;-88
2021/12/20 10:01:26;;;;;;;;;;;;;;;0.87;100.00;98308.73;1757042;80;21935;-88
2021/12/20 10:03:57;;;;;;;;;;;;;;;0.89;100.00;98309.95;1753547;80;26183;-87
2021/12/20 10:06:22;;;;;;;;;;;;;;;0.89;100.00;98318.97;1760956;81;25245;-87
2021/12/20 10:08:50;;;;;;;;;;;;;;;0.89;100.00;98320.25;1741466;81;20214;-88
2021/12/20 10:11:26;;;;;;;;;;;;;;;0.87;100.00;98318.19;1761096;80;25442;-87
2021/12/20 10:14:03;;;;;;;;;;;;;;;0.84;100.00;98313.53;1759318;80;22228;-88
2021/12/20 10:16:29;;;;;;;;;;;;;;;0.84;100.00;98308.82;1745736;81;26025;-88
2021/12/20 10:18:55;;;;;;;;;;;;;;;0.81;100.00;98314.09;1757247;81;25386;-88
2021/12/20 10:21:24;;;;;;;;;;;;;;;0.81;100.00;98313.64;1762159;80;20255;-88
2021/12/20 10:23:50;;;;;;;;;;;;;;;0.80;100.00;98308.53;1715273;81;24670;-88
2021/12/20 10:26:21;;;;;;;;;;;;;;;0.81;100.00;98316.22;1715036;82;22701;-88
2021/12/20 10:28:52;;;;;;;;;;;;;;;0.80;100.00;98313.69;1674442;83;26147;-88
2021/12/20 10:31:22;;;;;;;;;;;;;;;0.78;100.00;98317.59;1723949;82;24623;-88
2021/12/20 10:33:52;;;;;;;;;;;;;;;0.76;100.00;98315.97;1680508;84;20468;-88
2021/12/20 10:36:22;;;;;;;;;;;;;;;0.78;100.00;98312.88;1667584;84;25412;-88
2021/12/20 10:38:56;;;;;;;;;;;;;;;0.79;100.00;98315.86;1715477;83;21926;-88
2021/12/20 10:41:22;;;;;;;;;;;;;;;0.81;100.00;98315.38;1694829;82;26028;-87
2021/12/20 10:43:51;;;;;;;;;;;;;;;0.83;100.00;98320.85;1676733;83;24562;-87
2021/12/20 10:46:22;;;;;;;;;;;;;;;0.84;100.00;98324.27;1745372;81;20207;-87
2021/12/20 10:48:53;;;;;;;;;;;;;;;0.87;100.00;98324.19;1749693;80;24392;-87
2021/12/20 10:51:21;;;;;;;;;;;;;;;0.88;100.00;98326.29;1747705;81;21958;-87
2021/12/20 10:53:54;;;;;;;;;;;;;;;0.90;100.00;98321.50;1765479;80;26030;-87
2021/12/20 10:56:18;;;;;;;;;;;;;;;0.92;100.00;98322.75;1750563;80;24480;-88
2021/12/20 10:58:44;;;;;;;;;;;;;;;0.91;100.00;98318.03;1751558;80;20353;-88
2021/12/20 11:01:24;;;;;;;;;;;;;;;0.93;100.00;98321.38;1751442;81;24731;-87
2021/12/20 11:03:57;;;;;;;;;;;;;;;0.94;100.00;98319.66;1735669;81;22007;-87
2021/12/20 11:06:26;;;;;;;;;;;;;;;0.94;100.00;98325.65;1732752;81;26014;-87
2021/12/20 11:09:08;;;;;;;;;;;;;;;0.95;100.00;98323.48;1732061;81;24615;-87
2021/12/20 11:11:39;;;;;;;;;;;;;;;0.95;100.00;98323.48;1730937;81;20519;-87
2021/12/20 11:14:06;;;;;;;;;;;;;;;0.95;100.00;98331.20;1750827;81;24932;-87
2021/12/20 11:16:35;;;;;;;;;;;;;;;0.98;100.00;98331.56;1744026;81;22257;-87
2021/12/20 11:19:10;;;;;;;;;;;;;;;0.99;100.00;98341.80;1753503;81;25970;-87
2021/12/20 11:21:38;;;;;;;;;;;;;;;1.00;100.00;98337.05;1764740;81;24583;-88
2021/12/20 11:24:06;;;;;;;;;;;;;;;1.00;100.00;98337.48;1761675;81;20251;-88
2021/12/20 11:26:32;;;;;;;;;;;;;;;0.98;100.00;98336.27;1761054;80;24828;-88
2021/12/20 11:28:58;;;;;;;;;;;;;;;0.98;100.00;98331.56;1749764;81;20260;-88
2021/12/20 11:31:24;;;;;;;;;;;;;;;0.99;100.00;98337.93;1794366;78;26044;-88
2021/12/20 11:33:50;;;;;;;;;;;;;;;0.99;100.00;98328.91;1806940;78;24449;-88
2021/12/20 11:36:18;;;;;;;;;;;;;;;1.00;100.00;98327.18;1773867;79;20892;-88
2021/12/20 11:38:44;;;;;;;;;;;;;;;0.97;100.00;98322.99;1774161;79;23991;-88
2021/12/20 11:41:11;;;;;;;;;;;;;;;0.93;100.00;98327.83;1773764;79;21929;-88
2021/12/20 11:43:38;;;;;;;;;;;;;;;0.91;100.00;98327.50;1772467;79;26103;-85
2021/12/20 11:46:05;;;;;;;;;;;;;;;0.89;100.00;98323.67;1767176;79;24476;-88
2021/12/20 11:48:32;;;;;;;;;;;;;;;0.85;100.00;98331.11;1777362;79;20550;-88
2021/12/20 11:50:58;;;;;;;;;;;;;;;0.84;100.00;98326.84;1782995;79;24779;-89
2021/12/20 11:53:26;;;;;;;;;;;;;;;0.86;100.00;98334.09;1782656;79;21942;-89
2021/12/20 11:55:53;;;;;;;;;;;;;;;0.84;100.00;98331.56;1766759;79;26166;-88
2021/12/20 11:58:25;;;;;;;;;;;;;;;0.82;100.00;98337.20;1770577;78;24715;-88
2021/12/20 12:00:50;;;;;;;;;;;;;;;0.81;100.00;98334.69;1774211;79;20260;-87
2021/12/20 12:03:18;;;;;;;;;;;;;;;0.85;100.00;98333.69;1782189;79;25545;-87
2021/12/20 12:05:52;;;;;;;;;;;;;;;0.84;100.00;98335.86;1699371;82;21966;-87
2021/12/20 12:08:26;;;;;;;;;;;;;;;0.82;100.00;98332.48;1713926;82;26226;-88
2021/12/20 12:10:54;;;;;;;;;;;;;;;0.81;100.00;98326.96;1715986;82;24505;-89
2021/12/20 12:13:22;;;;;;;;;;;;;;;0.76;100.00;98320.64;1755917;81;20477;-88
2021/12/20 12:18:47;;;;;;;;;;;;;;;0.78;100.00;98331.75;1754679;80;22046;-88
2021/12/20 12:21:31;;;;;;;;;;;;;;;0.80;100.00;98336.42;1753351;80;26044;-88
2021/12/20 12:23:58;;;;;;;;;;;;;;;0.78;100.00;98329.17;1756831;80;24716;-88
2021/12/20 12:26:34;;;;;;;;;;;;;;;0.80;100.00;98333.84;1758670;81;20428;-88
2021/12/20 12:29:02;;;;;;;;;;;;;;;0.81;100.00;98333.41;1755644;80;24730;-88
2021/12/20 12:31:30;;;;;;;;;;;;;;;0.79;100.00;98327.00;1759278;81;22030;-88
2021/12/20 12:34:06;;;;;;;;;;;;;;;0.80;100.00;98326.13;1751691;81;26047;-87
2021/12/20 12:36:39;;;;;;;;;;;;;;;0.84;100.00;98328.98;1747958;81;24500;-88
2021/12/20 12:39:02;;;;;;;;;;;;;;;0.82;100.00;98325.60;1756408;81;20270;-88
2021/12/20 12:41:31;;;;;;;;;;;;;;;0.84;100.00;98319.97;1762820;81;25473;-88
2021/12/20 12:43:59;;;;;;;;;;;;;;;0.88;100.00;98327.58;1720098;82;22013;-88
2021/12/20 12:46:40;;;;;;;;;;;;;;;0.86;100.00;98328.94;1741759;80;26103;-85
2021/12/20 12:49:26;;;;;;;;;;;;;;;0.82;100.00;98332.05;1733857;80;24610;-87
2021/12/20 12:51:54;;;;;;;;;;;;;;;0.78;100.00;98321.89;1735642;80;20207;-87
2021/12/20 12:54:30;;;;;;;;;;;;;;;0.80;100.00;98333.00;1736049;80;24781;-87
2021/12/20 12:56:59;;;;;;;;;;;;;;;0.77;100.00;98328.78;1722705;80;21917;-88
2021/12/20 12:59:25;;;;;;;;;;;;;;;0.76;100.00;98330.14;1743628;80;26097;-88
2021/12/20 13:01:54;;;;;;;;;;;;;;;0.79;100.00;98335.17;1751177;81;24574;-87